Time;durP1;ratioP1;P1;durP2;ratioP2;P2;SDS_P1;SDS_P2;PMS_P1;PMS_P2;Temp;Humidity;BMP_temperature;BMP_pressure;BME280_temperature;BME280_humidity;BME280_pressure;Samples;Min_cycle;Max_cycle;Signal;HPM_P1;HPM_P2
2021/11/13 00:00:39;;;;;;;121.62;58.50;;;;;;;5.04;80.30;100326.61;2136776;81;21678;-73
2021/11/13 00:03:40;;;;;;;118.20;56.08;;;;;;;5.02;80.41;100329.00;2139624;81;21053;-73
2021/11/13 00:06:42;;;;;;;115.05;55.73;;;;;;;5.00;80.34;100328.29;2116100;81;20983;-73
2021/11/13 00:09:45;;;;;;;113.70;54.85;;;;;;;4.98;80.36;100326.26;2140660;81;21051;-74
2021/11/13 00:12:47;;;;;;;112.83;54.98;;;;;;;4.97;80.40;100325.91;2144452;81;21548;-74
2021/11/13 00:15:50;;;;;;;109.48;54.80;;;;;;;4.94;80.41;100317.79;2136696;81;21513;-73
2021/11/13 00:18:51;;;;;;;111.28;55.38;;;;;;;4.91;80.60;100328.08;2137570;81;20981;-73
2021/11/13 00:21:52;;;;;;;117.17;57.10;;;;;;;4.88;80.49;100317.81;2135548;81;20991;-74
2021/11/13 00:24:54;;;;;;;117.25;54.77;;;;;;;4.85;80.48;100311.49;2137512;81;21014;-74
2021/11/13 00:27:56;;;;;;;123.42;57.45;;;;;;;4.83;80.63;100309.45;2128084;81;21093;-74
2021/11/13 00:30:57;;;;;;;115.65;57.05;;;;;;;4.77;80.78;100306.50;2139601;81;21049;-73
2021/11/13 00:33:59;;;;;;;117.53;57.35;;;;;;;4.72;80.73;100300.30;2146264;81;21065;-74
2021/11/13 00:37:01;;;;;;;118.62;57.93;;;;;;;4.67;80.80;100295.89;2138626;81;20990;-73
2021/11/13 00:40:04;;;;;;;117.30;56.23;;;;;;;4.66;80.77;100303.42;2133661;81;21081;-73
2021/11/13 00:43:08;;;;;;;118.62;56.00;;;;;;;4.66;80.81;100299.48;2137658;81;21003;-74
2021/11/13 00:46:09;;;;;;;115.20;56.83;;;;;;;4.65;80.83;100299.14;2122072;81;21491;-73
2021/11/13 00:49:11;;;;;;;121.82;58.38;;;;;;;4.63;80.88;100294.48;2120005;82;21477;-73
2021/11/13 00:52:13;;;;;;;121.42;57.43;;;;;;;4.60;80.88;100298.67;2125452;82;21424;-74
2021/11/13 00:55:17;;;;;;;123.02;59.13;;;;;;;4.56;81.10;100302.03;2119779;82;21019;-73
2021/11/13 00:58:19;;;;;;;125.90;57.23;;;;;;;4.53;81.01;100298.31;2114093;82;20974;-73
2021/11/13 01:01:20;;;;;;;126.72;58.90;;;;;;;4.52;80.91;100309.80;2124001;82;21010;-74
2021/11/13 01:04:22;;;;;;;118.37;56.20;;;;;;;4.49;80.97;100303.47;2120072;82;21629;-74
2021/11/13 01:07:23;;;;;;;121.37;55.78;;;;;;;4.47;81.00;100299.64;2116434;82;21010;-73
2021/11/13 01:10:27;;;;;;;120.30;57.83;;;;;;;4.47;81.01;100293.07;2115186;82;20991;-73
2021/11/13 01:13:28;;;;;;;119.50;58.48;;;;;;;4.43;81.07;100297.40;2113733;82;21046;-73
2021/11/13 01:16:30;;;;;;;112.55;53.45;;;;;;;4.40;81.17;100294.53;2112840;82;20983;-73
2021/11/13 01:19:31;;;;;;;114.65;55.75;;;;;;;4.36;81.11;100290.47;2112212;82;21008;-73
2021/11/13 01:22:33;;;;;;;120.70;57.27;;;;;;;4.33;81.29;100287.26;2126570;82;20997;-74
2021/11/13 01:25:35;;;;;;;109.50;52.85;;;;;;;4.31;81.28;100289.16;2121957;82;21011;-74
2021/11/13 01:28:37;;;;;;;114.80;54.80;;;;;;;4.28;81.39;100287.64;2115678;82;20986;-73
2021/11/13 01:31:38;;;;;;;117.03;56.02;;;;;;;4.25;81.34;100284.78;2115047;82;20947;-73
2021/11/13 01:34:40;;;;;;;124.22;55.63;;;;;;;4.22;81.40;100278.46;2115285;82;21083;-74
2021/11/13 01:37:41;;;;;;;118.10;55.85;;;;;;;4.20;81.41;100277.73;2119407;82;21473;-73
2021/11/13 01:40:44;;;;;;;114.65;53.75;;;;;;;4.18;81.57;100274.87;2114966;82;21049;-73
2021/11/13 01:43:46;;;;;;;121.47;57.98;;;;;;;4.15;81.64;100267.24;2117218;82;21537;-73
2021/11/13 01:46:48;;;;;;;114.05;55.23;;;;;;;4.11;81.66;100260.55;2114531;82;21012;-73
2021/11/13 01:49:51;;;;;;;120.17;55.67;;;;;;;4.09;81.76;100258.55;2116594;82;20974;-73
2021/11/13 01:52:53;;;;;;;111.75;54.25;;;;;;;4.07;81.63;100253.88;2110315;82;20985;-73
2021/11/13 01:55:56;;;;;;;123.10;54.83;;;;;;;4.04;81.64;100250.53;2121574;82;21565;-73
2021/11/13 01:59:00;;;;;;;122.15;55.08;;;;;;;4.02;81.65;100244.56;2111269;82;21331;-73
2021/11/13 02:02:01;;;;;;;118.10;55.55;;;;;;;3.99;81.61;100246.12;2114530;82;21094;-73
2021/11/13 02:05:04;;;;;;;116.35;54.80;;;;;;;3.96;81.73;100230.61;2121305;82;21033;-74
2021/11/13 02:08:06;;;;;;;119.47;54.35;;;;;;;3.93;81.75;100233.97;2102383;82;21522;-73
2021/11/13 02:11:10;;;;;;;113.90;54.45;;;;;;;3.89;81.86;100237.32;2127411;82;20987;-73
2021/11/13 02:14:12;;;;;;;117.30;55.70;;;;;;;3.87;82.09;100240.53;2116575;82;21703;-73
2021/11/13 02:17:13;;;;;;;123.95;55.92;;;;;;;3.82;82.21;100226.93;2121530;82;21072;-73
2021/11/13 02:20:28;;;;;;;118.08;53.75;;;;;;;3.80;82.12;100234.94;2120298;82;21026;-73
2021/11/13 02:23:29;;;;;;;119.77;54.90;;;;;;;3.77;82.08;100226.45;2113867;82;21744;-74
2021/11/13 02:26:31;;;;;;;112.60;53.75;;;;;;;3.74;82.14;100228.01;2114768;82;21070;-73
2021/11/13 02:29:33;;;;;;;124.62;55.20;;;;;;;3.70;82.29;100220.03;2113826;82;21033;-73
2021/11/13 02:32:34;;;;;;;117.00;56.02;;;;;;;3.68;82.30;100220.13;2114077;82;21080;-73
2021/11/13 02:35:37;;;;;;;109.07;51.77;;;;;;;3.65;82.34;100224.80;2111338;82;21026;-73
2021/11/13 02:38:41;;;;;;;123.45;55.92;;;;;;;3.62;82.28;100215.86;2115002;82;21029;-73
2021/11/13 02:41:45;;;;;;;119.77;54.53;;;;;;;3.58;82.42;100215.27;2118252;82;21077;-74
2021/11/13 02:44:46;;;;;;;123.10;55.38;;;;;;;3.54;82.61;100208.09;2114916;82;21034;-73
2021/11/13 02:47:50;;;;;;;119.90;56.25;;;;;;;3.53;82.50;100209.05;2140594;81;21556;-73
2021/11/13 02:50:53;;;;;;;111.92;53.80;;;;;;;3.50;82.52;100205.36;2140574;81;20985;-73
2021/11/13 02:53:56;;;;;;;132.72;59.93;;;;;;;3.47;82.64;100204.29;2132763;81;21071;-73
2021/11/13 02:56:57;;;;;;;125.07;58.65;;;;;;;3.48;82.91;100219.06;2135747;81;21106;-73
2021/11/13 02:59:59;;;;;;;123.40;56.95;;;;;;;3.46;83.15;100205.22;2135433;81;21086;-73
2021/11/13 03:03:00;;;;;;;123.60;57.20;;;;;;;3.44;82.98;100207.16;2139473;81;21064;-74
2021/11/13 03:06:06;;;;;;;128.15;58.10;;;;;;;3.42;83.04;100209.05;2133096;81;21022;-73
2021/11/13 03:09:08;;;;;;;127.72;58.73;;;;;;;3.42;83.19;100210.84;2138532;81;21020;-74
2021/11/13 03:12:10;;;;;;;121.92;57.05;;;;;;;3.41;83.15;100196.90;2138715;81;20998;-73
2021/11/13 03:15:16;;;;;;;133.65;59.42;;;;;;;3.42;83.13;100198.56;2134718;81;21448;-73
2021/11/13 03:18:19;;;;;;;135.05;60.15;;;;;;;3.43;83.30;100201.53;2133913;81;21056;-74
2021/11/13 03:21:21;;;;;;;131.15;58.65;;;;;;;3.45;83.32;100204.05;2137283;81;22309;-74
2021/11/13 03:24:26;;;;;;;136.43;60.98;;;;;;;3.45;83.37;100194.38;2136903;81;21036;-73
2021/11/13 03:27:28;;;;;;;122.37;58.35;;;;;;;3.47;83.35;100212.64;2134606;81;21061;-74
2021/11/13 03:30:29;;;;;;;126.82;58.87;;;;;;;3.46;83.30;100210.95;2135444;81;21093;-76
2021/11/13 03:33:32;;;;;;;135.50;60.43;;;;;;;3.47;83.17;100210.84;2133973;81;21030;-73
2021/11/13 03:36:35;;;;;;;130.30;57.55;;;;;;;3.46;83.18;100207.84;2142199;81;21027;-75
2021/11/13 03:39:36;;;;;;;136.88;61.60;;;;;;;3.47;83.23;100216.09;2132636;81;21010;-73
2021/11/13 03:42:40;;;;;;;127.00;59.25;;;;;;;3.46;83.22;100213.09;2111846;81;21065;-73
2021/11/13 03:45:46;;;;;;;122.55;57.93;;;;;;;3.47;83.33;100203.46;2122828;81;21490;-73
2021/11/13 03:48:50;;;;;;;124.87;58.75;;;;;;;3.45;83.28;100207.50;2119435;82;21557;-73
2021/11/13 03:51:51;;;;;;;124.27;54.48;;;;;;;3.44;83.25;100200.59;2117449;82;21073;-74
2021/11/13 03:54:53;;;;;;;133.15;59.48;;;;;;;3.44;83.31;100208.47;2111865;82;21488;-73
2021/11/13 03:57:54;;;;;;;126.58;57.45;;;;;;;3.42;83.33;100199.87;2119743;82;22421;-73
2021/11/13 04:00:56;;;;;;;131.30;61.33;;;;;;;3.41;83.38;100204.77;2123548;82;21007;-73
2021/11/13 04:03:57;;;;;;;131.20;56.08;;;;;;;3.39;83.47;100202.73;2123187;82;21061;-74
2021/11/13 04:07:00;;;;;;;127.75;54.70;;;;;;;3.37;83.59;100198.91;2117461;82;21078;-74
2021/11/13 04:10:06;;;;;;;108.83;49.38;;;;;;;3.36;83.65;100195.94;2109855;82;22024;-74
2021/11/13 04:13:07;;;;;;;126.90;56.40;;;;;;;3.36;83.71;100192.48;2116326;82;21058;-73
2021/11/13 04:16:09;;;;;;;134.35;58.45;;;;;;;3.35;83.63;100189.48;2116398;82;20912;-73
2021/11/13 04:19:12;;;;;;;123.05;56.95;;;;;;;3.36;83.66;100184.61;2115322;82;21054;-74
2021/11/13 04:22:13;;;;;;;128.70;58.50;;;;;;;3.37;83.66;100182.34;2111288;82;21443;-74
2021/11/13 04:25:16;;;;;;;121.15;55.10;;;;;;;3.39;83.72;100187.00;2094042;82;21030;-73
2021/11/13 04:28:20;;;;;;;123.35;55.45;;;;;;;3.39;83.60;100182.23;2115569;82;21065;-74
2021/11/13 04:31:21;;;;;;;123.20;56.85;;;;;;;3.36;83.54;100192.00;2121067;82;21078;-73
2021/11/13 04:34:26;;;;;;;125.62;55.70;;;;;;;3.36;83.61;100197.73;2078302;84;21102;-73
2021/11/13 04:37:29;;;;;;;117.45;53.40;;;;;;;3.38;83.55;100191.89;2062895;84;21630;-74
2021/11/13 04:40:35;;;;;;;118.45;53.73;;;;;;;3.36;83.54;100197.24;2064487;84;21113;-73
2021/11/13 04:43:36;;;;;;;118.22;55.55;;;;;;;3.35;83.49;100193.41;2091087;83;21058;-76
2021/11/13 04:46:38;;;;;;;122.72;55.80;;;;;;;3.33;83.53;100188.78;2064597;83;21022;-73
2021/11/13 04:49:39;;;;;;;114.65;54.70;;;;;;;3.31;83.50;100190.69;2114151;83;21065;-73
2021/11/13 04:52:41;;;;;;;125.00;56.92;;;;;;;3.31;83.54;100186.75;2089676;84;21042;-73
2021/11/13 04:55:43;;;;;;;121.15;54.98;;;;;;;3.29;83.47;100187.34;2092221;84;21007;-75
2021/11/13 04:58:44;;;;;;;113.22;50.45;;;;;;;3.26;83.44;100200.20;2096718;84;20999;-74
2021/11/13 05:01:47;;;;;;;109.07;52.27;;;;;;;3.24;83.44;100189.02;2090785;84;21023;-73
2021/11/13 05:04:54;;;;;;;115.28;50.88;;;;;;;3.22;83.50;100199.27;2092348;84;21458;-74
2021/11/13 05:07:52;;;;;;;124.22;55.88;;;;;;;3.21;83.50;100200.20;2086752;84;21117;-75
2021/11/13 05:10:53;;;;;;;112.30;51.10;;;;;;;3.14;83.45;100199.36;2085248;84;21003;-74
2021/11/13 05:13:55;;;;;;;111.60;51.45;;;;;;;3.10;83.52;100192.70;2089449;84;21026;-73
2021/11/13 05:16:56;;;;;;;121.17;54.85;;;;;;;3.12;83.62;100194.70;2089791;84;21033;-74
2021/11/13 05:19:58;;;;;;;116.25;51.77;;;;;;;3.12;83.60;100194.70;2094192;84;21032;-74
2021/11/13 05:23:01;;;;;;;114.15;52.53;;;;;;;3.16;83.65;100200.57;2095494;84;21600;-74
2021/11/13 05:26:03;;;;;;;117.85;50.85;;;;;;;3.23;83.61;100203.55;2094609;84;21012;-74
2021/11/13 05:29:04;;;;;;;121.67;53.65;;;;;;;3.23;83.43;100202.23;2091530;84;21045;-74
2021/11/13 05:32:07;;;;;;;111.65;52.03;;;;;;;3.24;83.39;100198.65;2087666;84;21102;-73
2021/11/13 05:35:10;;;;;;;111.68;50.60;;;;;;;3.19;83.22;100198.20;2088688;84;21109;-74
2021/11/13 05:38:12;;;;;;;120.72;53.25;;;;;;;3.13;83.24;100196.39;2092727;84;22374;-73
2021/11/13 05:41:14;;;;;;;114.32;53.23;;;;;;;3.13;83.29;100203.43;2090248;84;21059;-74
2021/11/13 05:44:16;;;;;;;119.20;54.67;;;;;;;3.16;83.36;100206.30;2092636;84;21054;-74
2021/11/13 05:47:17;;;;;;;110.08;51.58;;;;;;;3.24;83.35;100204.76;2089891;84;21504;-73
2021/11/13 05:50:20;;;;;;;113.47;53.20;;;;;;;3.29;83.25;100208.31;2140333;81;21051;-72
2021/11/13 05:53:22;;;;;;;116.08;52.70;;;;;;;3.32;83.16;100214.19;2141344;81;21596;-73
2021/11/13 05:56:24;;;;;;;110.83;51.13;;;;;;;3.33;83.08;100215.02;2137421;81;21041;-73
2021/11/13 05:59:25;;;;;;;112.00;49.23;;;;;;;3.30;83.01;100219.19;2137828;81;20969;-73
2021/11/13 06:02:28;;;;;;;115.12;49.48;;;;;;;3.27;83.02;100220.25;2135564;81;21018;-73
2021/11/13 06:05:30;;;;;;;108.03;49.10;;;;;;;3.24;83.01;100222.25;2136389;81;20980;-73
2021/11/13 06:08:31;;;;;;;106.30;51.18;;;;;;;3.20;83.02;100220.83;2133851;81;21819;-72
2021/11/13 06:11:33;;;;;;;106.90;48.42;;;;;;;3.21;83.11;100219.42;2132150;81;21065;-72
2021/11/13 06:14:35;;;;;;;109.00;50.63;;;;;;;3.23;83.02;100222.73;2138469;81;21137;-73
2021/11/13 06:17:40;;;;;;;104.25;47.62;;;;;;;3.24;82.92;100221.80;2135470;81;21092;-73
2021/11/13 06:20:42;;;;;;;115.08;52.10;;;;;;;3.23;82.85;100236.33;2141473;81;21434;-73
2021/11/13 06:23:45;;;;;;;114.70;52.75;;;;;;;3.23;82.75;100228.46;2133350;81;21284;-73
2021/11/13 06:26:47;;;;;;;115.42;52.45;;;;;;;3.14;82.64;100237.37;2135298;81;21097;-72
2021/11/13 06:29:48;;;;;;;112.68;50.25;;;;;;;3.13;82.64;100242.28;2139239;81;20966;-73
2021/11/13 06:32:51;;;;;;;106.30;47.80;;;;;;;3.09;82.68;100241.30;2133373;81;21324;-73
2021/11/13 06:35:54;;;;;;;104.50;48.00;;;;;;;3.07;82.66;100248.44;2136026;81;21093;-73
2021/11/13 06:38:56;;;;;;;102.10;47.05;;;;;;;3.07;82.77;100253.69;2141761;81;21022;-72
2021/11/13 06:41:57;;;;;;;106.78;49.03;;;;;;;3.09;82.82;100251.79;2131966;81;21540;-73
2021/11/13 06:45:01;;;;;;;96.85;47.50;;;;;;;3.13;82.89;100249.31;2134349;81;21581;-72
2021/11/13 06:48:03;;;;;;;100.58;47.03;;;;;;;3.19;82.93;100253.27;2126952;81;21506;-73
2021/11/13 06:51:04;;;;;;;101.38;46.75;;;;;;;3.21;82.80;100256.58;2124799;82;20999;-73
2021/11/13 06:54:06;;;;;;;104.80;49.18;;;;;;;3.27;82.97;100260.91;2115169;82;21064;-76
2021/11/13 06:57:07;;;;;;;104.47;49.67;;;;;;;3.44;83.20;100270.11;2126251;82;20956;-75
2021/11/13 07:00:14;;;;;;;101.82;49.05;;;;;;;3.66;83.15;100266.68;2125309;82;21073;-75
2021/11/13 07:03:15;;;;;;;112.25;52.83;;;;;;;3.80;83.01;100263.81;2118316;82;21025;-75
2021/11/13 07:06:18;;;;;;;109.95;50.50;;;;;;;4.00;83.08;100270.13;2108014;82;21518;-71
2021/11/13 07:09:20;;;;;;;106.72;50.10;;;;;;;4.15;82.85;100269.87;2118456;82;21103;-76
2021/11/13 07:12:21;;;;;;;111.20;49.67;;;;;;;4.30;82.81;100266.00;2113289;82;21512;-70
2021/11/13 07:15:31;;;;;;;103.30;48.33;;;;;;;4.39;82.50;100257.86;2120656;82;21085;-70
2021/11/13 07:18:28;;;;;;;100.30;46.75;;;;;;;4.44;82.40;100268.36;2121128;82;21009;-71
2021/11/13 07:21:30;;;;;;;92.20;43.92;;;;;;;4.56;82.47;100270.50;2113934;82;21091;-73
2021/11/13 07:24:31;;;;;;;95.40;45.25;;;;;;;4.69;82.26;100263.27;2123462;82;21493;-70
2021/11/13 07:27:33;;;;;;;100.72;46.80;;;;;;;4.82;82.15;100259.16;2116905;82;22481;-71
2021/11/13 07:30:45;;;;;;;98.80;48.63;;;;;;;4.94;81.97;100269.14;2120344;82;20960;-71
2021/11/13 07:33:39;;;;;;;90.92;46.50;;;;;;;5.05;81.44;100266.95;2111125;82;20976;-71
2021/11/13 07:36:42;;;;;;;106.83;49.48;;;;;;;5.16;81.42;100270.83;2113303;82;21110;-72
2021/11/13 07:39:44;;;;;;;102.02;47.60;;;;;;;5.29;81.23;100270.13;2111105;82;21037;-69
2021/11/13 07:42:45;;;;;;;96.92;44.18;;;;;;;5.46;81.13;100265.25;2118939;82;21586;-70
2021/11/13 07:45:47;;;;;;;89.85;43.65;;;;;;;5.64;80.74;100264.19;2115870;82;21541;-76
2021/11/13 07:48:49;;;;;;;95.28;44.77;;;;;;;5.83;80.54;100269.05;2129550;82;21089;-71
2021/11/13 07:51:50;;;;;;;89.83;45.43;;;;;;;6.07;79.98;100262.64;2092686;82;20978;-72
2021/11/13 07:54:52;;;;;;;91.90;46.25;;;;;;;6.32;79.86;100260.48;2115233;82;20983;-70
2021/11/13 07:57:53;;;;;;;86.40;42.62;;;;;;;6.48;79.29;100258.98;2118120;82;20971;-72
2021/11/13 08:00:55;;;;;;;86.92;44.33;;;;;;;6.55;79.83;100257.12;2118850;82;21057;-70
2021/11/13 08:03:57;;;;;;;83.78;41.45;;;;;;;6.76;78.94;100268.38;2119969;82;20997;-70
2021/11/13 08:06:59;;;;;;;87.57;43.68;;;;;;;6.77;78.81;100261.30;2113416;82;21030;-70
2021/11/13 08:10:00;;;;;;;85.22;43.90;;;;;;;6.64;77.73;100266.34;2114600;82;20995;-71
2021/11/13 08:13:03;;;;;;;84.15;43.63;;;;;;;6.52;77.91;100255.59;2114598;82;21026;-74
2021/11/13 08:16:05;;;;;;;83.52;43.83;;;;;;;6.42;77.74;100253.41;2114704;82;21508;-70
2021/11/13 08:19:07;;;;;;;89.05;44.10;;;;;;;6.28;77.48;100246.76;2116907;82;21101;-72
2021/11/13 08:22:09;;;;;;;86.75;43.13;;;;;;;6.20;78.04;100251.38;2115760;82;21045;-73
2021/11/13 08:25:14;;;;;;;83.90;41.28;;;;;;;6.21;78.18;100246.45;2115341;82;20983;-70
2021/11/13 08:28:19;;;;;;;80.60;41.88;;;;;;;6.24;78.23;100247.49;2113371;82;21258;-70
2021/11/13 08:31:21;;;;;;;82.82;41.95;;;;;;;6.27;77.97;100241.12;2112307;82;21084;-70
2021/11/13 08:34:22;;;;;;;85.35;44.03;;;;;;;6.31;77.82;100245.62;2123250;82;21744;-70
2021/11/13 08:37:24;;;;;;;81.65;42.03;;;;;;;6.33;77.62;100248.97;2113517;82;21513;-69
2021/11/13 08:40:26;;;;;;;84.80;42.78;;;;;;;6.32;77.37;100243.36;2121287;82;21047;-71
2021/11/13 08:43:28;;;;;;;86.15;41.92;;;;;;;6.30;77.40;100236.89;2115378;82;21105;-75
2021/11/13 08:46:31;;;;;;;86.10;42.55;;;;;;;6.33;77.75;100242.38;2116813;82;21034;-70
2021/11/13 08:49:40;;;;;;;81.87;41.33;;;;;;;6.53;78.01;100244.06;2121132;82;21045;-80
2021/11/13 08:52:41;;;;;;;81.78;41.37;;;;;;;6.78;77.20;100249.27;2126870;82;21033;-72
2021/11/13 08:55:44;;;;;;;85.83;41.63;;;;;;;6.81;77.23;100242.40;2117264;82;21007;-71
2021/11/13 08:58:45;;;;;;;79.07;40.67;;;;;;;6.82;77.17;100250.68;2116830;82;20991;-71
2021/11/13 09:01:50;;;;;;;78.33;39.18;;;;;;;6.86;77.29;100253.86;2115009;82;21090;-73
2021/11/13 09:04:53;;;;;;;83.75;43.13;;;;;;;6.89;77.17;100251.77;2115877;82;21038;-71
2021/11/13 09:07:57;;;;;;;88.33;43.73;;;;;;;6.91;77.30;100255.60;2118491;82;21374;-71
2021/11/13 09:10:58;;;;;;;87.90;42.53;;;;;;;6.94;77.21;100246.09;2121162;82;21519;-72
2021/11/13 09:14:03;;;;;;;95.57;43.80;;;;;;;7.01;76.91;100248.52;2114901;82;21372;-71
2021/11/13 09:17:06;;;;;;;81.97;41.70;;;;;;;7.07;76.90;100251.09;2114518;82;21050;-71
2021/11/13 09:20:10;;;;;;;85.65;43.63;;;;;;;7.16;76.85;100248.91;2116879;82;21064;-72
2021/11/13 09:23:13;;;;;;;85.35;44.30;;;;;;;7.23;76.76;100246.53;2114277;82;21314;-72
2021/11/13 09:26:15;;;;;;;81.42;41.40;;;;;;;7.30;76.47;100245.00;2116295;82;21547;-72
2021/11/13 09:29:17;;;;;;;83.90;42.38;;;;;;;7.31;76.51;100247.48;2103516;82;21010;-72
2021/11/13 09:32:19;;;;;;;82.20;41.05;;;;;;;7.30;76.19;100243.69;2122475;82;21030;-72
2021/11/13 09:35:24;;;;;;;86.55;42.65;;;;;;;7.24;76.18;100241.62;2113610;82;20998;-72
2021/11/13 09:38:29;;;;;;;78.78;40.52;;;;;;;7.30;76.34;100243.69;2119759;82;21010;-72
2021/11/13 09:41:32;;;;;;;78.57;41.37;;;;;;;7.33;76.04;100241.58;2112576;82;21293;-72
2021/11/13 09:44:35;;;;;;;81.60;41.05;;;;;;;7.33;75.96;100246.03;2116227;82;21046;-70
2021/11/13 09:47:38;;;;;;;82.27;42.23;;;;;;;7.39;76.08;100245.45;2117622;82;21022;-71
2021/11/13 09:50:40;;;;;;;80.45;42.45;;;;;;;7.47;75.28;100241.61;2116030;81;21058;-72
2021/11/13 09:53:41;;;;;;;77.35;39.27;;;;;;;7.49;75.21;100239.67;2092297;83;21027;-81
2021/11/13 09:56:43;;;;;;;69.15;35.80;;;;;;;7.57;75.55;100240.25;2092814;83;21012;-74
2021/11/13 09:59:45;;;;;;;76.62;39.73;;;;;;;7.63;75.02;100243.17;2101924;83;21090;-71
2021/11/13 10:02:47;;;;;;;73.95;38.92;;;;;;;7.67;75.12;100243.70;2088067;83;21601;-72
2021/11/13 10:05:59;;;;;;;71.33;37.23;;;;;;;7.84;75.20;100235.50;2100386;83;21012;-71
2021/11/13 10:09:01;;;;;;;71.60;38.10;;;;;;;7.93;74.77;100233.29;2096232;83;21018;-73
2021/11/13 10:12:04;;;;;;;72.17;37.23;;;;;;;7.90;74.11;100228.30;2097308;83;21039;-73
2021/11/13 10:15:35;;;;;;;68.30;36.53;;;;;;;7.89;73.41;100229.29;2094200;83;21471;-72
2021/11/13 10:18:47;;;;;;;66.60;36.68;;;;;;;7.96;73.98;100226.39;2024265;86;21154;-72
2021/11/13 10:21:54;;;;;;;62.93;35.17;;;;;;;8.03;73.47;100225.33;2027853;85;21025;-72
2021/11/13 10:24:55;;;;;;;63.40;33.80;;;;;;;8.12;73.43;100223.11;2098957;83;20992;-73
2021/11/13 10:28:15;;;;;;;59.27;31.77;;;;;;;8.18;72.68;100225.66;2095090;82;21017;-75
2021/11/13 10:31:28;;;;;;;57.25;30.43;;;;;;;8.20;72.32;100218.41;2092649;83;21508;-73
2021/11/13 10:34:41;;;;;;;54.10;29.55;;;;;;;8.29;72.06;100220.16;2092066;83;21081;-73
2021/11/13 10:37:48;;;;;;;53.90;29.72;;;;;;;8.48;72.46;100221.38;2101239;83;21043;-72
2021/11/13 10:41:00;;;;;;;52.67;29.10;;;;;;;8.66;71.92;100209.95;2095832;83;21191;-72
2021/11/13 10:44:02;;;;;;;67.72;30.05;;;;;;;8.75;69.67;100210.36;2094050;82;21538;-72
2021/11/13 10:47:34;;;;;;;52.70;29.60;;;;;;;8.80;70.88;100213.38;2100505;83;21055;-72
2021/11/13 10:50:40;;;;;;;48.42;29.48;;;;;;;8.92;70.67;100206.85;2095738;83;21110;-72
2021/11/13 10:53:45;;;;;;;54.45;30.77;;;;;;;9.19;70.41;100203.25;2093623;83;21051;-72
2021/11/13 10:56:52;;;;;;;57.93;31.50;;;;;;;9.32;69.34;100197.55;2093481;83;21014;-75
2021/11/13 10:59:55;;;;;;;50.05;28.35;;;;;;;9.54;68.70;100196.66;2096747;83;21018;-73
2021/11/13 11:03:06;;;;;;;52.43;29.00;;;;;;;9.61;69.39;100194.55;2095319;83;21038;-74
2021/11/13 11:06:10;;;;;;;46.98;27.80;;;;;;;9.78;69.38;100196.77;2102179;83;21632;-75
2021/11/13 11:09:31;;;;;;;45.90;28.20;;;;;;;10.00;67.53;100190.06;2079888;83;21070;-73
2021/11/13 11:12:36;;;;;;;52.65;29.72;;;;;;;10.13;68.23;100198.86;2094408;83;21016;-73
2021/11/13 11:15:42;;;;;;;48.98;28.83;;;;;;;10.25;68.20;100193.61;2098640;83;21003;-74
2021/11/13 11:19:09;;;;;;;52.85;30.10;;;;;;;10.37;68.26;100190.17;2091365;83;21508;-73
2021/11/13 11:22:14;;;;;;;50.15;30.43;;;;;;;10.54;67.31;100193.67;2067791;84;21146;-74
2021/11/13 11:25:17;;;;;;;49.53;28.95;;;;;;;10.51;66.78;100196.66;2095507;83;21011;-70
2021/11/13 11:28:19;;;;;;;49.85;30.32;;;;;;;10.49;66.17;100196.81;2096416;83;21157;-69
2021/11/13 11:31:42;;;;;;;47.88;28.02;;;;;;;10.39;66.22;100190.84;2092465;83;21178;-76
2021/11/13 11:34:45;;;;;;;47.43;27.50;;;;;;;10.42;66.45;100189.70;2099733;83;21596;-71
2021/11/13 11:37:52;;;;;;;43.30;27.80;;;;;;;10.33;65.83;100191.48;2091978;83;21066;-71
2021/11/13 11:40:54;;;;;;;50.43;29.42;;;;;;;10.19;65.92;100187.64;2093283;83;21047;-73
2021/11/13 11:43:56;;;;;;;47.33;27.77;;;;;;;9.99;65.27;100188.89;2096087;82;21491;-74
2021/11/13 11:47:00;;;;;;;45.80;28.52;;;;;;;9.85;65.89;100188.53;2096035;83;21053;-77
2021/11/13 11:50:04;;;;;;;52.38;31.33;;;;;;;9.74;65.32;100178.22;2081601;83;21065;-75
2021/11/13 11:53:12;;;;;;;49.18;30.82;;;;;;;9.60;65.29;100180.13;2070054;84;21097;-74
2021/11/13 11:56:13;;;;;;;46.48;27.25;;;;;;;9.48;64.81;100181.40;2054039;84;22377;-74
2021/11/13 11:59:15;;;;;;;47.08;28.67;;;;;;;9.32;65.02;100179.02;2077524;84;21002;-75
2021/11/13 12:02:20;;;;;;;51.85;29.75;;;;;;;9.28;65.56;100173.68;2072239;82;22270;-75
2021/11/13 12:05:31;;;;;;;47.80;28.70;;;;;;;9.34;65.60;100174.87;2075981;84;21017;-74
2021/11/13 12:08:33;;;;;;;47.58;28.73;;;;;;;9.43;65.75;100172.59;2074991;84;21018;-75
2021/11/13 12:11:36;;;;;;;53.00;30.43;;;;;;;9.53;65.68;100163.22;2081070;84;21035;-76
2021/11/13 12:14:39;;;;;;;43.65;26.82;;;;;;;9.51;64.89;100172.63;2072338;84;21080;-75
2021/11/13 12:17:41;;;;;;;46.77;27.82;;;;;;;9.48;65.25;100171.63;2070865;84;21057;-72
2021/11/13 12:20:44;;;;;;;45.23;27.58;;;;;;;9.53;65.46;100174.64;2075675;84;21053;-73
2021/11/13 12:23:49;;;;;;;45.58;28.40;;;;;;;9.61;65.22;100171.20;2073009;84;21040;-75
2021/11/13 12:27:03;;;;;;;48.87;29.02;;;;;;;9.67;64.28;100168.41;2079352;84;20971;-77
2021/11/13 12:30:06;;;;;;;46.37;29.52;;;;;;;9.62;64.18;100156.95;2070197;84;21009;-74
2021/11/13 12:33:28;;;;;;;48.35;27.48;;;;;;;9.57;63.86;100153.95;2073159;84;20980;-74
2021/11/13 12:37:03;;;;;;;45.43;28.02;;;;;;;9.53;63.58;100153.95;2071838;84;21097;-72
2021/11/13 12:40:05;;;;;;;52.75;28.98;;;;;;;9.51;64.37;100151.45;2072542;83;21617;-74
2021/11/13 12:43:07;;;;;;;46.70;27.80;;;;;;;9.52;63.84;100160.25;2074539;84;20982;-73
2021/11/13 12:46:34;;;;;;;41.68;26.30;;;;;;;9.50;63.91;100162.21;2075890;84;21032;-73
2021/11/13 12:50:04;;;;;;;49.45;27.25;;;;;;;9.56;64.38;100163.72;2086855;83;21168;-75
2021/11/13 12:53:05;;;;;;;43.77;26.53;;;;;;;9.64;63.90;100159.78;2099164;83;21041;-74
2021/11/13 12:56:07;;;;;;;44.00;26.15;;;;;;;9.54;63.36;100162.22;2099275;83;21016;-76
2021/11/13 12:59:18;;;;;;;40.25;25.90;;;;;;;9.46;63.78;100163.03;2091291;83;21039;-75
2021/11/13 13:02:20;;;;;;;;;;;;;;;9.41;63.82;100158.20;2096498;83;21022;-74
2021/11/13 13:05:22;;;;;;;47.75;28.47;;;;;;;9.45;63.81;100151.26;2098636;83;20170;-74
2021/11/13 13:08:24;;;;;;;42.65;26.00;;;;;;;9.43;63.85;100157.55;2098006;83;21025;-76
2021/11/13 13:11:26;;;;;;;46.40;27.45;;;;;;;9.45;64.01;100157.88;2102412;82;21097;-75
2021/11/13 13:14:35;;;;;;;38.70;24.00;;;;;;;9.42;63.87;100158.52;2098951;83;21022;-74
2021/11/13 13:17:44;;;;;;;44.18;26.77;;;;;;;9.43;64.24;100156.23;2098660;83;21494;-78
2021/11/13 13:20:46;;;;;;;42.27;26.15;;;;;;;9.49;64.29;100164.04;2100613;82;21078;-75
2021/11/13 13:23:48;;;;;;;56.55;33.45;;;;;;;9.50;64.28;100160.39;2092990;83;21067;-75
2021/11/13 13:26:52;;;;;;;50.30;31.40;;;;;;;9.51;64.34;100162.04;2098268;83;21009;-75
2021/11/13 13:29:58;;;;;;;54.00;29.48;;;;;;;9.51;64.34;100173.13;2089790;83;21086;-75
2021/11/13 13:33:02;;;;;;;46.45;28.07;;;;;;;9.53;64.38;100167.19;2096194;83;21056;-75
2021/11/13 13:36:04;;;;;;;51.00;28.12;;;;;;;9.53;64.41;100165.87;2097112;83;21081;-75
2021/11/13 13:39:12;;;;;;;51.88;29.60;;;;;;;9.49;64.00;100169.80;2095302;83;21000;-75
2021/11/13 13:42:14;;;;;;;50.70;27.42;;;;;;;9.36;63.90;100175.05;2097155;83;21090;-75
2021/11/13 13:45:18;;;;;;;47.50;27.62;;;;;;;9.24;63.93;100180.29;2093851;83;21185;-74
2021/11/13 13:48:32;;;;;;;52.30;29.40;;;;;;;9.16;64.30;100182.88;2097007;83;21062;-73
2021/11/13 13:51:39;;;;;;;48.83;27.73;;;;;;;9.09;64.23;100185.30;2083287;84;21055;-74
2021/11/13 13:54:42;;;;;;;50.88;28.67;;;;;;;9.04;64.61;100182.78;2086884;82;21517;-72
2021/11/13 13:58:01;;;;;;;42.70;25.37;;;;;;;9.06;64.73;100192.73;2079642;84;21084;-73